createdAt,value
2019-05-25T01:08:25.168Z,98980.37
2019-05-25T01:11:00.556Z,98985.11
2019-05-25T01:13:35.713Z,98986.80
2019-05-25T01:16:10.950Z,98986.38
2019-05-25T07:46:55.637Z,99899.69
2019-05-25T07:49:31.166Z,99903.31
2019-05-25T07:52:05.972Z,99901.50
2019-05-25T07:54:38.978Z,99897.30
2019-05-25T07:57:15.771Z,99907.47
2019-05-25T07:59:46.686Z,99902.06
2019-05-25T08:02:21.758Z,99906.66
2019-05-25T08:04:55.712Z,99902.23
2019-05-25T08:07:28.712Z,99902.48
2019-05-25T08:10:01.797Z,99910.41
2019-05-25T08:12:36.456Z,99911.44
2019-05-25T08:15:09.794Z,99912.16
2019-05-25T08:17:42.858Z,99914.66
2019-05-25T08:20:15.963Z,99910.02
2019-05-25T08:22:50.715Z,99899.73
2019-05-25T08:25:25.381Z,99897.11
2019-05-25T08:27:58.553Z,99887.05
2019-05-25T08:30:31.718Z,99883.74
2019-05-25T08:33:04.998Z,99889.64
2019-05-25T08:35:38.198Z,99886.92
2019-05-25T08:38:11.435Z,99888.58
2019-05-25T08:40:44.843Z,99883.74
2019-05-25T08:43:18.011Z,99878.03
2019-05-25T08:45:51.368Z,99883.48
2019-05-25T08:48:24.571Z,99895.59
2019-05-25T08:50:59.704Z,99896.75
2019-05-25T08:53:41.535Z,99898.77
2019-05-25T08:56:10.723Z,99887.64
2019-05-25T08:58:48.412Z,99878.09
2019-05-25T09:01:18.944Z,99874.59
2019-05-25T09:03:52.264Z,99868.74
2019-05-25T09:06:27.079Z,99865.01
2019-05-25T09:08:59.999Z,99857.98
2019-05-25T09:11:38.484Z,99859.86
2019-05-25T09:14:11.889Z,99854.09
2019-05-25T09:16:45.284Z,99858.27
2019-05-25T09:19:20.083Z,99861.41
2019-05-25T09:22:01.896Z,99849.16
2019-05-25T09:24:28.222Z,99851.30
2019-05-25T09:27:13.675Z,99851.52
2019-05-25T09:29:48.563Z,99857.98
2019-05-25T09:32:23.714Z,99843.83
2019-05-25T09:34:59.182Z,99838.94
2019-05-25T09:37:32.765Z,99838.19
2019-05-25T09:40:07.748Z,99831.36
2019-05-25T09:42:42.706Z,99825.63
2019-05-25T09:45:16.776Z,99823.74
2019-05-25T09:47:50.517Z,99822.38
2019-05-25T09:50:24.175Z,99820.51
2019-05-25T09:52:56.888Z,99821.11
2019-05-25T09:55:30.029Z,99821.25
2019-05-25T09:58:03.736Z,99823.41
2019-05-25T10:00:40.214Z,99824.72
2019-05-25T10:03:17.151Z,99821.98
2019-05-25T10:05:47.644Z,99820.67
2019-05-25T10:08:20.859Z,99812.72
2019-05-25T10:11:03.919Z,99813.01
2019-05-25T10:13:38.318Z,99813.08
2019-05-25T10:16:11.737Z,99811.93
2019-05-25T10:18:54.056Z,99806.26
2019-05-25T10:21:32.361Z,99802.80
2019-05-25T10:24:05.536Z,99817.02
2019-05-25T10:26:38.977Z,99839.56
2019-05-25T10:29:12.446Z,99873.91
2019-05-25T10:31:47.744Z,99873.69
2019-05-25T10:34:23.250Z,99889.95
2019-05-25T10:36:57.128Z,99890.02
2019-05-25T10:39:31.394Z,99892.46
2019-05-25T10:42:03.902Z,99889.63
2019-05-25T10:44:37.387Z,99907.61
2019-05-25T10:47:14.187Z,99905.95
